sensor_id;sensor_type;location;lat;lon;timestamp;pressure;altitude;pressure_sealevel;temperature
30765;BMP180;494;48.744;10.106;2022-12-24T00:01:37;94553.00;;;9.90
30765;BMP180;494;48.744;10.106;2022-12-24T00:04:06;94879.00;;;11.60
30765;BMP180;494;48.744;10.106;2022-12-24T00:06:34;94961.00;;;8.70
30765;BMP180;494;48.744;10.106;2022-12-24T00:09:03;93807.00;;;11.50
30765;BMP180;494;48.744;10.106;2022-12-24T00:11:32;94732.00;;;9.00
30765;BMP180;494;48.744;10.106;2022-12-24T00:14:01;95054.00;;;11.00
30765;BMP180;494;48.744;10.106;2022-12-24T00:16:29;94530.00;;;11.60
30765;BMP180;494;48.744;10.106;2022-12-24T00:18:59;95083.00;;;11.60
30765;BMP180;494;48.744;10.106;2022-12-24T00:21:28;95182.00;;;9.40
30765;BMP180;494;48.744;10.106;2022-12-24T00:23:57;95127.00;;;10.50
30765;BMP180;494;48.744;10.106;2022-12-24T00:26:26;94926.00;;;11.60
30765;BMP180;494;48.744;10.106;2022-12-24T00:28:55;95087.00;;;11.40
30765;BMP180;494;48.744;10.106;2022-12-24T00:31:23;94634.00;;;11.70
30765;BMP180;494;48.744;10.106;2022-12-24T00:33:52;94864.00;;;11.70
30765;BMP180;494;48.744;10.106;2022-12-24T00:36:22;93934.00;;;11.80
30765;BMP180;494;48.744;10.106;2022-12-24T00:38:51;95425.00;;;11.70
30765;BMP180;494;48.744;10.106;2022-12-24T00:41:20;95080.00;;;11.60
30765;BMP180;494;48.744;10.106;2022-12-24T00:43:58;94683.00;;;11.10
30765;BMP180;494;48.744;10.106;2022-12-24T00:46:29;94808.00;;;11.70
30765;BMP180;494;48.744;10.106;2022-12-24T00:48:59;95106.00;;;8.30
30765;BMP180;494;48.744;10.106;2022-12-24T00:51:29;95220.00;;;8.80
30765;BMP180;494;48.744;10.106;2022-12-24T00:53:58;94585.00;;;11.90
30765;BMP180;494;48.744;10.106;2022-12-24T00:56:27;94487.00;;;11.90
30765;BMP180;494;48.744;10.106;2022-12-24T00:58:56;95179.00;;;11.80
30765;BMP180;494;48.744;10.106;2022-12-24T01:01:26;95150.00;;;11.50
30765;BMP180;494;48.744;10.106;2022-12-24T01:03:55;94813.00;;;11.80
30765;BMP180;494;48.744;10.106;2022-12-24T01:06:45;95109.00;;;10.20
30765;BMP180;494;48.744;10.106;2022-12-24T01:09:14;94692.00;;;11.90
30765;BMP180;494;48.744;10.106;2022-12-24T01:11:43;95172.00;;;9.20
30765;BMP180;494;48.744;10.106;2022-12-24T01:14:12;94746.00;;;11.90
30765;BMP180;494;48.744;10.106;2022-12-24T01:16:41;94850.00;;;11.50
30765;BMP180;494;48.744;10.106;2022-12-24T01:19:09;95240.00;;;11.80
30765;BMP180;494;48.744;10.106;2022-12-24T01:21:38;95188.00;;;11.70
30765;BMP180;494;48.744;10.106;2022-12-24T01:24:13;94181.00;;;11.80
30765;BMP180;494;48.744;10.106;2022-12-24T01:26:42;95180.00;;;11.90
30765;BMP180;494;48.744;10.106;2022-12-24T01:29:11;95236.00;;;11.60
30765;BMP180;494;48.744;10.106;2022-12-24T01:31:40;94532.00;;;11.50
30765;BMP180;494;48.744;10.106;2022-12-24T01:34:09;94824.00;;;11.80
30765;BMP180;494;48.744;10.106;2022-12-24T01:36:37;95160.00;;;11.80
30765;BMP180;494;48.744;10.106;2022-12-24T01:39:07;95051.00;;;11.50
30765;BMP180;494;48.744;10.106;2022-12-24T01:41:36;94794.00;;;10.50
30765;BMP180;494;48.744;10.106;2022-12-24T01:44:25;95178.00;;;11.60
30765;BMP180;494;48.744;10.106;2022-12-24T01:47:07;95263.00;;;10.40
30765;BMP180;494;48.744;10.106;2022-12-24T01:49:45;95210.00;;;11.80
30765;BMP180;494;48.744;10.106;2022-12-24T01:52:21;95287.00;;;9.70
30765;BMP180;494;48.744;10.106;2022-12-24T01:54:56;95230.00;;;10.80
30765;BMP180;494;48.744;10.106;2022-12-24T01:57:30;94896.00;;;11.50
30765;BMP180;494;48.744;10.106;2022-12-24T02:00:04;94887.00;;;11.80
30765;BMP180;494;48.744;10.106;2022-12-24T02:02:34;95189.00;;;11.80
30765;BMP180;494;48.744;10.106;2022-12-24T02:05:09;95226.00;;;11.30
30765;BMP180;494;48.744;10.106;2022-12-24T02:07:40;95314.00;;;11.70
30765;BMP180;494;48.744;10.106;2022-12-24T02:10:13;95045.00;;;10.50
30765;BMP180;494;48.744;10.106;2022-12-24T02:12:43;94805.00;;;11.60
30765;BMP180;494;48.744;10.106;2022-12-24T02:15:16;94580.00;;;9.70
30765;BMP180;494;48.744;10.106;2022-12-24T02:17:56;94977.00;;;11.60
30765;BMP180;494;48.744;10.106;2022-12-24T02:20:51;95145.00;;;9.90
30765;BMP180;494;48.744;10.106;2022-12-24T02:24:01;95139.00;;;11.70
30765;BMP180;494;48.744;10.106;2022-12-24T02:26:59;95191.00;;;10.80
30765;BMP180;494;48.744;10.106;2022-12-24T02:30:04;95110.00;;;10.00
30765;BMP180;494;48.744;10.106;2022-12-24T02:32:52;95127.00;;;11.00
30765;BMP180;494;48.744;10.106;2022-12-24T02:35:33;95269.00;;;11.70
30765;BMP180;494;48.744;10.106;2022-12-24T02:38:12;94881.00;;;9.70
30765;BMP180;494;48.744;10.106;2022-12-24T02:40:48;95140.00;;;7.90
30765;BMP180;494;48.744;10.106;2022-12-24T02:43:22;94357.00;;;11.50
30765;BMP180;494;48.744;10.106;2022-12-24T02:45:58;95406.00;;;11.40
30765;BMP180;494;48.744;10.106;2022-12-24T02:48:28;95183.00;;;9.90
30765;BMP180;494;48.744;10.106;2022-12-24T02:51:03;95226.00;;;10.90
30765;BMP180;494;48.744;10.106;2022-12-24T02:53:34;95138.00;;;10.60
30765;BMP180;494;48.744;10.106;2022-12-24T02:56:33;95067.00;;;10.30
30765;BMP180;494;48.744;10.106;2022-12-24T02:59:27;95251.00;;;8.30
30765;BMP180;494;48.744;10.106;2022-12-24T03:02:12;94922.00;;;8.80
30765;BMP180;494;48.744;10.106;2022-12-24T03:04:55;95216.00;;;10.30
30765;BMP180;494;48.744;10.106;2022-12-24T03:07:31;95184.00;;;9.80
30765;BMP180;494;48.744;10.106;2022-12-24T03:10:15;95330.00;;;7.10
30765;BMP180;494;48.744;10.106;2022-12-24T03:12:48;95527.00;;;6.70
30765;BMP180;494;48.744;10.106;2022-12-24T03:15:21;95352.00;;;7.50
30765;BMP180;494;48.744;10.106;2022-12-24T03:17:57;94280.00;;;8.30
30765;BMP180;494;48.744;10.106;2022-12-24T03:20:33;94822.00;;;10.40
30765;BMP180;494;48.744;10.106;2022-12-24T03:23:03;95288.00;;;7.10
30765;BMP180;494;48.744;10.106;2022-12-24T03:25:34;95541.00;;;8.90
30765;BMP180;494;48.744;10.106;2022-12-24T03:28:08;94393.00;;;9.00
30765;BMP180;494;48.744;10.106;2022-12-24T03:30:39;95173.00;;;9.80
30765;BMP180;494;48.744;10.106;2022-12-24T03:33:12;95296.00;;;8.30
30765;BMP180;494;48.744;10.106;2022-12-24T03:35:41;95496.00;;;9.70
30765;BMP180;494;48.744;10.106;2022-12-24T03:38:10;94914.00;;;11.00
30765;BMP180;494;48.744;10.106;2022-12-24T03:40:39;94264.00;;;10.90
30765;BMP180;494;48.744;10.106;2022-12-24T03:43:08;94498.00;;;8.00
30765;BMP180;494;48.744;10.106;2022-12-24T03:45:36;95429.00;;;10.20
30765;BMP180;494;48.744;10.106;2022-12-24T03:48:06;95354.00;;;10.90
30765;BMP180;494;48.744;10.106;2022-12-24T03:50:36;95211.00;;;8.40
30765;BMP180;494;48.744;10.106;2022-12-24T03:53:05;94574.00;;;7.70
30765;BMP180;494;48.744;10.106;2022-12-24T03:55:34;95440.00;;;11.00
30765;BMP180;494;48.744;10.106;2022-12-24T03:58:02;95483.00;;;8.60
30765;BMP180;494;48.744;10.106;2022-12-24T04:00:31;95682.00;;;10.70
30765;BMP180;494;48.744;10.106;2022-12-24T04:03:00;95587.00;;;10.80
30765;BMP180;494;48.744;10.106;2022-12-24T04:05:29;95624.00;;;8.50
30765;BMP180;494;48.744;10.106;2022-12-24T04:07:59;94273.00;;;10.90
30765;BMP180;494;48.744;10.106;2022-12-24T04:10:28;95174.00;;;10.90
30765;BMP180;494;48.744;10.106;2022-12-24T04:12:56;94426.00;;;11.00
30765;BMP180;494;48.744;10.106;2022-12-24T04:15:25;95478.00;;;11.10
30765;BMP180;494;48.744;10.106;2022-12-24T04:17:54;94297.00;;;8.90
30765;BMP180;494;48.744;10.106;2022-12-24T04:20:23;95650.00;;;11.10
30765;BMP180;494;48.744;10.106;2022-12-24T04:22:52;94836.00;;;11.10
30765;BMP180;494;48.744;10.106;2022-12-24T04:25:22;95419.00;;;11.10
30765;BMP180;494;48.744;10.106;2022-12-24T04:27:51;94700.00;;;11.30
30765;BMP180;494;48.744;10.106;2022-12-24T04:30:20;94667.00;;;10.80
30765;BMP180;494;48.744;10.106;2022-12-24T04:32:48;95208.00;;;7.30
30765;BMP180;494;48.744;10.106;2022-12-24T04:35:17;94601.00;;;10.50
30765;BMP180;494;48.744;10.106;2022-12-24T04:37:46;95293.00;;;8.00
30765;BMP180;494;48.744;10.106;2022-12-24T04:40:15;95451.00;;;11.30
30765;BMP180;494;48.744;10.106;2022-12-24T04:42:45;95080.00;;;10.60
30765;BMP180;494;48.744;10.106;2022-12-24T04:45:13;94682.00;;;11.10
30765;BMP180;494;48.744;10.106;2022-12-24T04:47:42;95619.00;;;11.00
30765;BMP180;494;48.744;10.106;2022-12-24T04:50:12;95209.00;;;7.60
30765;BMP180;494;48.744;10.106;2022-12-24T04:52:40;95172.00;;;11.20
30765;BMP180;494;48.744;10.106;2022-12-24T04:55:09;94538.00;;;8.30
30765;BMP180;494;48.744;10.106;2022-12-24T04:57:38;95050.00;;;7.00
30765;BMP180;494;48.744;10.106;2022-12-24T05:00:11;94250.00;;;11.10
30765;BMP180;494;48.744;10.106;2022-12-24T05:02:40;94228.00;;;6.20
30765;BMP180;494;48.744;10.106;2022-12-24T05:05:09;95596.00;;;11.00
30765;BMP180;494;48.744;10.106;2022-12-24T05:07:38;94658.00;;;7.50
30765;BMP180;494;48.744;10.106;2022-12-24T05:10:08;95512.00;;;9.70
30765;BMP180;494;48.744;10.106;2022-12-24T05:12:38;94295.00;;;9.30
30765;BMP180;494;48.744;10.106;2022-12-24T05:15:09;94428.00;;;10.90
30765;BMP180;494;48.744;10.106;2022-12-24T05:17:37;94659.00;;;11.00
30765;BMP180;494;48.744;10.106;2022-12-24T05:20:07;94872.00;;;10.70
30765;BMP180;494;48.744;10.106;2022-12-24T05:22:36;95518.00;;;7.20
30765;BMP180;494;48.744;10.106;2022-12-24T05:25:22;95151.00;;;7.40
30765;BMP180;494;48.744;10.106;2022-12-24T05:28:07;95384.00;;;10.20
30765;BMP180;494;48.744;10.106;2022-12-24T05:30:38;95139.00;;;8.70
30765;BMP180;494;48.744;10.106;2022-12-24T05:33:06;94707.00;;;10.90
30765;BMP180;494;48.744;10.106;2022-12-24T05:35:35;95514.00;;;6.10
30765;BMP180;494;48.744;10.106;2022-12-24T05:38:04;95487.00;;;7.20
30765;BMP180;494;48.744;10.106;2022-12-24T05:40:32;95552.00;;;7.00
30765;BMP180;494;48.744;10.106;2022-12-24T05:43:01;95597.00;;;9.50
30765;BMP180;494;48.744;10.106;2022-12-24T05:45:33;94567.00;;;10.80
30765;BMP180;494;48.744;10.106;2022-12-24T05:48:03;94512.00;;;10.90
30765;BMP180;494;48.744;10.106;2022-12-24T05:50:34;95367.00;;;10.70
30765;BMP180;494;48.744;10.106;2022-12-24T05:53:04;95566.00;;;6.80
30765;BMP180;494;48.744;10.106;2022-12-24T05:55:34;95641.00;;;10.80
30765;BMP180;494;48.744;10.106;2022-12-24T05:58:02;95254.00;;;8.50
30765;BMP180;494;48.744;10.106;2022-12-24T06:00:32;94371.00;;;10.80
30765;BMP180;494;48.744;10.106;2022-12-24T06:03:02;94928.00;;;10.80
30765;BMP180;494;48.744;10.106;2022-12-24T06:05:32;94316.00;;;10.80
30765;BMP180;494;48.744;10.106;2022-12-24T06:08:02;94577.00;;;10.90
30765;BMP180;494;48.744;10.106;2022-12-24T06:10:30;94494.00;;;10.90
30765;BMP180;494;48.744;10.106;2022-12-24T06:13:00;95185.00;;;6.30
30765;BMP180;494;48.744;10.106;2022-12-24T06:15:28;95346.00;;;10.80
30765;BMP180;494;48.744;10.106;2022-12-24T06:17:57;94619.00;;;8.00
30765;BMP180;494;48.744;10.106;2022-12-24T06:20:27;95310.00;;;9.50
30765;BMP180;494;48.744;10.106;2022-12-24T06:22:56;95425.00;;;6.80
30765;BMP180;494;48.744;10.106;2022-12-24T06:25:25;94759.00;;;7.20
30765;BMP180;494;48.744;10.106;2022-12-24T06:27:54;95122.00;;;7.10
30765;BMP180;494;48.744;10.106;2022-12-24T06:30:24;95532.00;;;6.40
30765;BMP180;494;48.744;10.106;2022-12-24T06:32:53;94726.00;;;7.00
30765;BMP180;494;48.744;10.106;2022-12-24T06:35:21;95183.00;;;10.30
30765;BMP180;494;48.744;10.106;2022-12-24T06:37:53;95634.00;;;7.80
30765;BMP180;494;48.744;10.106;2022-12-24T06:40:22;95537.00;;;10.20
30765;BMP180;494;48.744;10.106;2022-12-24T06:42:51;95297.00;;;10.20
30765;BMP180;494;48.744;10.106;2022-12-24T06:45:20;94517.00;;;10.20
30765;BMP180;494;48.744;10.106;2022-12-24T06:47:49;95566.00;;;5.20
30765;BMP180;494;48.744;10.106;2022-12-24T06:50:20;95493.00;;;8.30
30765;BMP180;494;48.744;10.106;2022-12-24T06:52:50;95500.00;;;6.20
30765;BMP180;494;48.744;10.106;2022-12-24T06:55:20;95329.00;;;8.40
30765;BMP180;494;48.744;10.106;2022-12-24T06:57:50;94267.00;;;8.10
30765;BMP180;494;48.744;10.106;2022-12-24T07:00:19;95475.00;;;10.10
30765;BMP180;494;48.744;10.106;2022-12-24T07:02:49;94941.00;;;7.30
30765;BMP180;494;48.744;10.106;2022-12-24T07:05:18;94130.00;;;8.40
30765;BMP180;494;48.744;10.106;2022-12-24T07:07:47;95576.00;;;9.90
30765;BMP180;494;48.744;10.106;2022-12-24T07:10:18;95208.00;;;9.80
30765;BMP180;494;48.744;10.106;2022-12-24T07:12:49;95412.00;;;7.70
30765;BMP180;494;48.744;10.106;2022-12-24T07:15:18;95175.00;;;9.60
30765;BMP180;494;48.744;10.106;2022-12-24T07:17:47;95217.00;;;8.60
30765;BMP180;494;48.744;10.106;2022-12-24T07:20:16;95650.00;;;9.70
30765;BMP180;494;48.744;10.106;2022-12-24T07:22:45;95842.00;;;9.60
30765;BMP180;494;48.744;10.106;2022-12-24T07:25:15;95377.00;;;9.70
30765;BMP180;494;48.744;10.106;2022-12-24T07:27:44;95424.00;;;7.80
30765;BMP180;494;48.744;10.106;2022-12-24T07:30:14;95222.00;;;9.50
30765;BMP180;494;48.744;10.106;2022-12-24T07:32:43;94544.00;;;6.10
30765;BMP180;494;48.744;10.106;2022-12-24T07:35:12;95790.00;;;9.60
30765;BMP180;494;48.744;10.106;2022-12-24T07:37:41;95272.00;;;6.60
30765;BMP180;494;48.744;10.106;2022-12-24T07:40:10;95613.00;;;9.70
30765;BMP180;494;48.744;10.106;2022-12-24T07:42:39;95549.00;;;9.50
30765;BMP180;494;48.744;10.106;2022-12-24T07:45:09;94365.00;;;9.40
30765;BMP180;494;48.744;10.106;2022-12-24T07:47:39;94018.00;;;9.20
30765;BMP180;494;48.744;10.106;2022-12-24T07:50:09;94578.00;;;9.30
30765;BMP180;494;48.744;10.106;2022-12-24T07:52:37;95330.00;;;8.60
30765;BMP180;494;48.744;10.106;2022-12-24T07:55:07;94427.00;;;9.50
30765;BMP180;494;48.744;10.106;2022-12-24T07:57:36;94210.00;;;5.90
30765;BMP180;494;48.744;10.106;2022-12-24T08:00:07;95752.00;;;9.40
30765;BMP180;494;48.744;10.106;2022-12-24T08:02:38;95408.00;;;7.80
30765;BMP180;494;48.744;10.106;2022-12-24T08:05:08;95374.00;;;9.60
30765;BMP180;494;48.744;10.106;2022-12-24T08:07:37;94743.00;;;5.70
30765;BMP180;494;48.744;10.106;2022-12-24T08:10:07;95573.00;;;9.60
30765;BMP180;494;48.744;10.106;2022-12-24T08:12:36;95207.00;;;9.80
30765;BMP180;494;48.744;10.106;2022-12-24T08:15:05;95575.00;;;9.80
30765;BMP180;494;48.744;10.106;2022-12-24T08:17:34;94500.00;;;9.60
30765;BMP180;494;48.744;10.106;2022-12-24T08:20:06;95307.00;;;9.70
30765;BMP180;494;48.744;10.106;2022-12-24T08:22:35;95569.00;;;9.70
30765;BMP180;494;48.744;10.106;2022-12-24T08:25:04;95165.00;;;9.90
30765;BMP180;494;48.744;10.106;2022-12-24T08:27:33;94745.00;;;7.70
30765;BMP180;494;48.744;10.106;2022-12-24T08:30:02;95568.00;;;9.60
30765;BMP180;494;48.744;10.106;2022-12-24T08:32:31;95483.00;;;9.20
30765;BMP180;494;48.744;10.106;2022-12-24T08:35:00;95575.00;;;9.50
30765;BMP180;494;48.744;10.106;2022-12-24T08:37:30;95565.00;;;10.10
30765;BMP180;494;48.744;10.106;2022-12-24T08:39:58;95623.00;;;10.30
30765;BMP180;494;48.744;10.106;2022-12-24T08:42:27;95376.00;;;10.30
30765;BMP180;494;48.744;10.106;2022-12-24T08:44:55;95541.00;;;10.40
30765;BMP180;494;48.744;10.106;2022-12-24T08:47:24;95364.00;;;9.40
30765;BMP180;494;48.744;10.106;2022-12-24T08:49:52;94887.00;;;10.70
30765;BMP180;494;48.744;10.106;2022-12-24T08:52:21;95490.00;;;10.60
30765;BMP180;494;48.744;10.106;2022-12-24T08:54:51;95634.00;;;10.80
30765;BMP180;494;48.744;10.106;2022-12-24T08:57:20;95421.00;;;10.80
30765;BMP180;494;48.744;10.106;2022-12-24T08:59:48;95509.00;;;9.70
30765;BMP180;494;48.744;10.106;2022-12-24T09:02:18;95608.00;;;11.00
30765;BMP180;494;48.744;10.106;2022-12-24T09:04:48;95504.00;;;11.20
30765;BMP180;494;48.744;10.106;2022-12-24T09:07:16;95642.00;;;11.30
30765;BMP180;494;48.744;10.106;2022-12-24T09:09:45;95128.00;;;11.20
30765;BMP180;494;48.744;10.106;2022-12-24T09:12:15;95383.00;;;11.10
30765;BMP180;494;48.744;10.106;2022-12-24T09:14:44;95295.00;;;10.50
30765;BMP180;494;48.744;10.106;2022-12-24T09:17:12;95303.00;;;11.30
30765;BMP180;494;48.744;10.106;2022-12-24T09:19:41;95634.00;;;11.20
30765;BMP180;494;48.744;10.106;2022-12-24T09:22:09;95391.00;;;10.80
30765;BMP180;494;48.744;10.106;2022-12-24T09:24:38;95398.00;;;11.40
30765;BMP180;494;48.744;10.106;2022-12-24T09:27:06;95382.00;;;11.40
30765;BMP180;494;48.744;10.106;2022-12-24T09:29:36;95569.00;;;11.50
30765;BMP180;494;48.744;10.106;2022-12-24T09:32:07;95673.00;;;11.50
30765;BMP180;494;48.744;10.106;2022-12-24T09:34:36;94978.00;;;11.50
30765;BMP180;494;48.744;10.106;2022-12-24T09:37:04;95641.00;;;11.50
30765;BMP180;494;48.744;10.106;2022-12-24T09:39:33;94420.00;;;11.40
30765;BMP180;494;48.744;10.106;2022-12-24T09:42:14;95810.00;;;11.50
30765;BMP180;494;48.744;10.106;2022-12-24T09:44:56;95792.00;;;11.70
30765;BMP180;494;48.744;10.106;2022-12-24T09:47:32;95655.00;;;11.10
30765;BMP180;494;48.744;10.106;2022-12-24T09:50:38;94909.00;;;14.70
30765;BMP180;494;48.744;10.106;2022-12-24T09:53:17;95613.00;;;13.20
30765;BMP180;494;48.744;10.106;2022-12-24T09:55:49;95326.00;;;16.20
30765;BMP180;494;48.744;10.106;2022-12-24T09:58:25;95729.00;;;17.50
30765;BMP180;494;48.744;10.106;2022-12-24T10:00:56;95689.00;;;18.10
30765;BMP180;494;48.744;10.106;2022-12-24T10:03:26;95479.00;;;19.80
30765;BMP180;494;48.744;10.106;2022-12-24T10:06:07;95768.00;;;19.20
30765;BMP180;494;48.744;10.106;2022-12-24T10:08:55;95413.00;;;17.60
30765;BMP180;494;48.744;10.106;2022-12-24T10:11:35;95178.00;;;17.10
30765;BMP180;494;48.744;10.106;2022-12-24T10:14:29;95681.00;;;15.20
30765;BMP180;494;48.744;10.106;2022-12-24T10:17:29;95359.00;;;12.80
30765;BMP180;494;48.744;10.106;2022-12-24T10:20:27;95640.00;;;15.10
30765;BMP180;494;48.744;10.106;2022-12-24T10:23:07;94640.00;;;12.80
30765;BMP180;494;48.744;10.106;2022-12-24T10:25:48;95576.00;;;14.80
30765;BMP180;494;48.744;10.106;2022-12-24T10:28:24;95651.00;;;15.70
30765;BMP180;494;48.744;10.106;2022-12-24T10:31:02;95637.00;;;16.20
30765;BMP180;494;48.744;10.106;2022-12-24T10:33:39;94989.00;;;14.50
30765;BMP180;494;48.744;10.106;2022-12-24T10:36:15;95736.00;;;15.80
30765;BMP180;494;48.744;10.106;2022-12-24T10:38:45;95554.00;;;15.00
30765;BMP180;494;48.744;10.106;2022-12-24T10:41:15;95464.00;;;17.10
30765;BMP180;494;48.744;10.106;2022-12-24T10:43:45;95645.00;;;19.40
30765;BMP180;494;48.744;10.106;2022-12-24T10:46:20;95646.00;;;21.00
30765;BMP180;494;48.744;10.106;2022-12-24T10:48:57;95548.00;;;19.20
30765;BMP180;494;48.744;10.106;2022-12-24T10:51:39;95647.00;;;19.80
30765;BMP180;494;48.744;10.106;2022-12-24T10:54:13;95447.00;;;17.90
30765;BMP180;494;48.744;10.106;2022-12-24T10:57:01;95422.00;;;16.70
30765;BMP180;494;48.744;10.106;2022-12-24T10:59:39;95490.00;;;17.60
30765;BMP180;494;48.744;10.106;2022-12-24T11:02:26;95619.00;;;19.50
30765;BMP180;494;48.744;10.106;2022-12-24T11:04:58;95631.00;;;19.30
30765;BMP180;494;48.744;10.106;2022-12-24T11:07:29;95490.00;;;19.10
30765;BMP180;494;48.744;10.106;2022-12-24T11:10:00;95664.00;;;17.70
30765;BMP180;494;48.744;10.106;2022-12-24T11:12:34;95670.00;;;16.90
30765;BMP180;494;48.744;10.106;2022-12-24T11:15:13;95437.00;;;15.90
30765;BMP180;494;48.744;10.106;2022-12-24T11:17:52;95576.00;;;15.40
30765;BMP180;494;48.744;10.106;2022-12-24T11:20:26;95710.00;;;16.30
30765;BMP180;494;48.744;10.106;2022-12-24T11:22:56;95306.00;;;15.10
30765;BMP180;494;48.744;10.106;2022-12-24T11:25:27;95649.00;;;17.60
30765;BMP180;494;48.744;10.106;2022-12-24T11:28:11;95424.00;;;19.10
30765;BMP180;494;48.744;10.106;2022-12-24T11:30:40;95505.00;;;18.70
30765;BMP180;494;48.744;10.106;2022-12-24T11:33:18;95699.00;;;21.50
30765;BMP180;494;48.744;10.106;2022-12-24T11:35:55;95622.00;;;22.60
30765;BMP180;494;48.744;10.106;2022-12-24T11:38:26;94971.00;;;23.40
30765;BMP180;494;48.744;10.106;2022-12-24T11:41:02;95688.00;;;22.60
30765;BMP180;494;48.744;10.106;2022-12-24T11:43:40;95633.00;;;22.30
30765;BMP180;494;48.744;10.106;2022-12-24T11:46:33;95635.00;;;20.60
30765;BMP180;494;48.744;10.106;2022-12-24T11:49:15;95747.00;;;20.90
30765;BMP180;494;48.744;10.106;2022-12-24T11:52:18;95641.00;;;21.20
30765;BMP180;494;48.744;10.106;2022-12-24T11:55:05;95442.00;;;19.50
30765;BMP180;494;48.744;10.106;2022-12-24T11:57:52;95662.00;;;18.40
30765;BMP180;494;48.744;10.106;2022-12-24T12:00:23;95660.00;;;18.00
30765;BMP180;494;48.744;10.106;2022-12-24T12:02:56;95582.00;;;15.90
30765;BMP180;494;48.744;10.106;2022-12-24T12:05:31;95655.00;;;15.70
30765;BMP180;494;48.744;10.106;2022-12-24T12:08:13;95451.00;;;16.40
30765;BMP180;494;48.744;10.106;2022-12-24T12:10:45;95581.00;;;15.10
30765;BMP180;494;48.744;10.106;2022-12-24T12:13:21;95715.00;;;14.50
30765;BMP180;494;48.744;10.106;2022-12-24T12:16:03;95665.00;;;14.90
30765;BMP180;494;48.744;10.106;2022-12-24T12:18:37;95774.00;;;14.00
30765;BMP180;494;48.744;10.106;2022-12-24T12:21:13;95729.00;;;14.70
30765;BMP180;494;48.744;10.106;2022-12-24T12:23:50;95666.00;;;14.50
30765;BMP180;494;48.744;10.106;2022-12-24T12:26:25;95649.00;;;14.30
30765;BMP180;494;48.744;10.106;2022-12-24T12:28:59;95707.00;;;14.40
30765;BMP180;494;48.744;10.106;2022-12-24T12:31:34;95532.00;;;14.00
30765;BMP180;494;48.744;10.106;2022-12-24T12:34:11;95693.00;;;13.50
30765;BMP180;494;48.744;10.106;2022-12-24T12:36:45;95023.00;;;14.60
30765;BMP180;494;48.744;10.106;2022-12-24T12:39:16;95651.00;;;14.10
30765;BMP180;494;48.744;10.106;2022-12-24T12:41:55;95163.00;;;14.40
30765;BMP180;494;48.744;10.106;2022-12-24T12:44:58;95449.00;;;14.00
30765;BMP180;494;48.744;10.106;2022-12-24T12:47:53;95443.00;;;13.90
30765;BMP180;494;48.744;10.106;2022-12-24T12:50:32;95665.00;;;14.10
30765;BMP180;494;48.744;10.106;2022-12-24T12:53:21;95708.00;;;14.00
30765;BMP180;494;48.744;10.106;2022-12-24T12:56:02;95678.00;;;14.30
30765;BMP180;494;48.744;10.106;2022-12-24T12:58:39;95715.00;;;14.00
30765;BMP180;494;48.744;10.106;2022-12-24T13:01:17;95491.00;;;14.10
30765;BMP180;494;48.744;10.106;2022-12-24T13:04:38;95704.00;;;13.70
30765;BMP180;494;48.744;10.106;2022-12-24T13:07:41;95392.00;;;13.60
30765;BMP180;494;48.744;10.106;2022-12-24T13:13:47;95534.00;;;13.70
30765;BMP180;494;48.744;10.106;2022-12-24T13:16:52;95631.00;;;13.80
30765;BMP180;494;48.744;10.106;2022-12-24T13:19:40;95605.00;;;13.30
30765;BMP180;494;48.744;10.106;2022-12-24T13:22:15;95515.00;;;14.10
30765;BMP180;494;48.744;10.106;2022-12-24T13:24:50;95453.00;;;14.30
30765;BMP180;494;48.744;10.106;2022-12-24T13:27:24;95429.00;;;14.50
30765;BMP180;494;48.744;10.106;2022-12-24T13:29:57;95699.00;;;13.90
30765;BMP180;494;48.744;10.106;2022-12-24T13:32:45;95555.00;;;14.10
30765;BMP180;494;48.744;10.106;2022-12-24T13:35:37;95566.00;;;13.90
30765;BMP180;494;48.744;10.106;2022-12-24T13:38:33;95691.00;;;13.80
30765;BMP180;494;48.744;10.106;2022-12-24T13:44:28;95468.00;;;13.60
30765;BMP180;494;48.744;10.106;2022-12-24T13:47:31;95352.00;;;13.70
30765;BMP180;494;48.744;10.106;2022-12-24T13:50:28;95691.00;;;13.60
30765;BMP180;494;48.744;10.106;2022-12-24T13:53:03;95174.00;;;13.20
30765;BMP180;494;48.744;10.106;2022-12-24T13:55:33;95710.00;;;13.00
30765;BMP180;494;48.744;10.106;2022-12-24T13:58:04;95765.00;;;13.00
30765;BMP180;494;48.744;10.106;2022-12-24T14:00:40;95708.00;;;13.20
30765;BMP180;494;48.744;10.106;2022-12-24T14:03:27;95700.00;;;13.20
30765;BMP180;494;48.744;10.106;2022-12-24T14:06:00;95726.00;;;13.20
30765;BMP180;494;48.744;10.106;2022-12-24T14:08:36;95529.00;;;11.60
30765;BMP180;494;48.744;10.106;2022-12-24T14:11:10;95762.00;;;12.90
30765;BMP180;494;48.744;10.106;2022-12-24T14:14:11;95721.00;;;12.90
30765;BMP180;494;48.744;10.106;2022-12-24T14:16:54;95609.00;;;12.20
30765;BMP180;494;48.744;10.106;2022-12-24T14:19:29;95631.00;;;12.80
30765;BMP180;494;48.744;10.106;2022-12-24T14:22:23;95836.00;;;10.60
30765;BMP180;494;48.744;10.106;2022-12-24T14:24:57;95722.00;;;12.40
30765;BMP180;494;48.744;10.106;2022-12-24T14:27:33;94615.00;;;13.00
30765;BMP180;494;48.744;10.106;2022-12-24T14:30:15;95599.00;;;13.00
30765;BMP180;494;48.744;10.106;2022-12-24T14:32:46;95421.00;;;13.00
30765;BMP180;494;48.744;10.106;2022-12-24T14:35:19;95218.00;;;13.00
30765;BMP180;494;48.744;10.106;2022-12-24T14:37:51;95485.00;;;13.10
30765;BMP180;494;48.744;10.106;2022-12-24T14:40:28;95816.00;;;12.60
30765;BMP180;494;48.744;10.106;2022-12-24T14:43:10;95575.00;;;13.30
30765;BMP180;494;48.744;10.106;2022-12-24T14:45:49;95305.00;;;13.00
30765;BMP180;494;48.744;10.106;2022-12-24T14:48:28;95882.00;;;13.00
30765;BMP180;494;48.744;10.106;2022-12-24T14:51:11;95070.00;;;11.20
30765;BMP180;494;48.744;10.106;2022-12-24T14:54:04;95803.00;;;12.90
30765;BMP180;494;48.744;10.106;2022-12-24T14:56:36;95201.00;;;10.10
30765;BMP180;494;48.744;10.106;2022-12-24T14:59:14;95842.00;;;12.60
30765;BMP180;494;48.744;10.106;2022-12-24T15:01:44;95018.00;;;12.60
30765;BMP180;494;48.744;10.106;2022-12-24T15:04:17;95009.00;;;11.40
30765;BMP180;494;48.744;10.106;2022-12-24T15:06:51;95171.00;;;11.10
30765;BMP180;494;48.744;10.106;2022-12-24T15:09:24;95812.00;;;12.10
30765;BMP180;494;48.744;10.106;2022-12-24T15:11:58;95618.00;;;12.40
30765;BMP180;494;48.744;10.106;2022-12-24T15:14:37;95463.00;;;12.40